• Join FlightAware (Why Join?)
  • Login
  • US Flag 
02:00PM EDT


 

Airport Tracker/Info


-or-


 

Live Flight TrackerFlight Track Log ✈ SWA1729 ✈ 10-Aug-2013 ✈ KOAK - KMDW

Flight Track Log - Related Links

Times and Time Zones

All times are in EDT time to prevent confusion due to time zone crossing. See the SWA1729 flight status page for this flight to view local times or setup timezone preferences in your user account.

Time Position Orientation Groundspeed Altitude Reporting Facility
EDT Latitude Longitude Course Direction KTS MPH feet Rate Location/Type
08:33PM 37.7500 -122.2833 70° East 195 224 2,200  Level Northern Cal TRACON
08:34PM 37.8000 -122.3000 345° North 238 274 4,900 2,760 Climbing Northern Cal TRACON
08:36PM 37.8475 -122.1125 72° East 284 327 10,700 2,460 Climbing Oakland Center
08:37PM 37.8731 -121.9933 75° East 347 399 12,600 2,400 Climbing Oakland Center
08:38PM 37.9741 -121.3242 70° East  Level FlightAware Approximate
08:38PM 37.9014 -121.8631 75° East 382 440 15,700  Level Oakland Center
08:39PM 37.9297 -121.7272 75° East 396 456 18,300 2,460 Climbing Oakland Center
08:40PM 37.9578 -121.5856 76° East 415 478 20,800 2,400 Climbing Oakland Center
08:41PM 37.9933 -121.4203 75° East 437 503 23,200 2,100 Climbing Oakland Center
08:42PM 38.0239 -121.2656 76° East 454 522 25,100 1,860 Climbing Oakland Center
08:43PM 38.0556 -121.1064 76° East 470 541 27,000 1,620 Climbing Oakland Center
08:44PM 38.0908 -120.9439 75° East 480 552 28,400 1,320 Climbing Oakland Center
08:45PM 38.1314 -120.7769 73° East 497 572 29,800 1,440 Climbing Oakland Center
08:46PM 38.1728 -120.6058 73° East 508 585 31,400 1,560 Climbing Oakland Center
08:47PM 38.2136 -120.4353 73° East 507 583 33,000 1,440 Climbing Oakland Center
08:48PM 38.2531 -120.2644 74° East 506 582 34,400 1,380 Climbing Oakland Center
08:49PM 38.2911 -120.0933 74° East 504 580 35,900 1,260 Climbing Oakland Center
08:50PM 38.3311 -119.9247 73° East 500 575 37,000 540 Climbing Oakland Center
08:51PM 38.3781 -119.7200 74° East 502 578 37,000  Level Oakland Center
08:52PM 38.4164 -119.5558 73° East 501 577 37,000  Level Oakland Center
08:53PM 38.4547 -119.3842 74° East 505 581 37,000  Level Oakland Center
08:54PM 38.4931 -119.2144 74° East 500 575 37,000  Level Oakland Center
08:55PM 38.5158 -119.0417 80° East 499 574 37,000  Level Oakland Center
08:56PM 38.5331 -118.8714 83° East 489 563 37,000  Level Oakland Center
08:57PM 38.5506 -118.7011 82° East 487 560 37,000  Level Oakland Center
08:58PM 38.5669 -118.5303 83° East 487 560 37,000  Level Oakland Center
08:59PM 38.5864 -118.3272 83° East 484 557 37,000  Level Oakland Center
09:00PM 38.6031 -118.1547 83° East 490 564 37,000  Level Oakland Center
09:01PM 38.6192 -117.9789 83° East 489 563 37,000  Level Oakland Center
09:02PM 38.6344 -117.8053 84° East 490 564 37,000  Level Oakland Center
09:03PM 38.6500 -117.6317 83° East 489 563 37,000  Level Oakland Center
09:04PM 38.6647 -117.4575 84° East 489 563 37,000  Level Oakland Center
09:05PM 38.6806 -117.2819 83° East 492 566 37,000  Level Oakland Center
09:06PM 38.7067 -117.1097 79° East 491 565 37,000  Level Oakland Center
09:07PM 38.7325 -116.9364 79° East 492 566 37,000  Level Oakland Center
09:08PM 38.7581 -116.7639 79° East 491 565 37,000  Level Oakland Center
09:09PM 38.7842 -116.5903 79° East 493 567 37,000  Level Oakland Center
09:10PM 38.8083 -116.4183 80° East 491 565 37,000  Level Oakland Center
09:11PM 38.8328 -116.2472 80° East 487 560 37,000  Level Oakland Center
09:12PM 38.8553 -116.0861 80° East 488 562 37,000  Level Oakland Center
09:14PM 38.8889 -115.8375 80° East 485 558 37,000  Level Salt Lake Center
09:15PM 38.9131 -115.6689 80° East 482 555 37,000  Level Salt Lake Center
09:16PM 38.9356 -115.5000 80° East 480 552 37,000  Level Salt Lake Center
09:17PM 38.9617 -115.3214 79° East 489 563 37,000  Level Salt Lake Center
09:18PM 38.9850 -115.1517 80° East 487 560 37,000  Level Salt Lake Center
09:19PM 39.0067 -114.9819 81° East 483 556 37,000  Level Salt Lake Center
09:20PM 39.0289 -114.8128 80° East 480 552 37,000  Level Salt Lake Center
09:21PM 39.0508 -114.6428 81° East 480 552 37,000  Level Salt Lake Center
09:22PM 39.0728 -114.4722 81° East 483 556 37,000  Level Salt Lake Center
09:23PM 39.0978 -114.2678 81° East 483 556 37,000  Level Salt Lake Center
09:24PM 39.1189 -114.0983 81° East 480 552 37,000  Level Salt Lake Center
09:25PM 39.1394 -113.9286 81° East 480 552 37,000  Level Salt Lake Center
09:26PM 39.1597 -113.7589 81° East 479 551 37,000 360 Level Salt Lake Center
09:27PM 39.1803 -113.5878 81° East 481 554 37,800 900 Climbing Salt Lake Center
09:28PM 39.1997 -113.4200 81° East 475 547 38,900 540 Climbing Salt Lake Center
09:29PM 39.2192 -113.2489 82° East 479 551 39,000  Climbing Salt Lake Center
09:30PM 39.2386 -113.0778 82° East 482 555 39,000  Level Salt Lake Center
09:31PM 39.2583 -112.9058 82° East 484 557 39,000  Level Salt Lake Center
09:32PM 39.2778 -112.7328 82° East 485 558 39,000  Level Salt Lake Center
09:33PM 39.2978 -112.5500 82° East 486 559 39,000  Level Salt Lake Center
09:34PM 39.3261 -112.3814 78° East 485 558 39,000  Level Salt Lake Center
09:35PM 39.3581 -112.2133 76° East 483 556 39,000  Level Salt Lake Center
09:36PM 39.3950 -112.0092 77° East 487 560 39,000  Level Salt Lake Center
09:37PM 39.4253 -111.8414 77° East 483 556 39,000  Level Salt Lake Center
09:38PM 39.4553 -111.6714 77° East 485 558 39,000  Level Salt Lake Center
09:39PM 39.4875 -111.5017 76° East 487 560 39,000  Level Salt Lake Center
09:40PM 39.5164 -111.3294 78° East 494 568 39,000  Level Salt Lake Center
09:41PM 39.5506 -111.1514 76° East 482 555 39,000  Level Salt Lake Center
09:42PM 39.5794 -110.9875 77° East 485 558 39,000  Level Salt Lake Center
09:43PM 39.6106 -110.7975 78° East 483 556 39,000  Level Salt Lake Center
09:44PM 39.6397 -110.6350 77° East 484 557 39,000  Level Salt Lake Center
09:45PM 39.6703 -110.4447 78° East 483 556 39,000  Level Salt Lake Center
09:46PM 39.6989 -110.2825 77° East 483 556 39,000  Level Salt Lake Center
09:47PM 39.7267 -110.1186 78° East 484 557 39,000  Level Salt Lake Center
09:49PM 39.7583 -109.9261 78° East 488 562 39,000  Level Salt Lake Center
09:50PM 39.7847 -109.7619 78° East 485 558 39,000  Level Salt Lake Center
09:51PM 39.8114 -109.5964 78° East 486 559 39,000  Level Salt Lake Center
09:52PM 39.8414 -109.4036 78° East 487 560 39,000  Level Salt Lake Center
09:53PM 39.8686 -109.2392 78° East 485 558 39,000  Level Salt Lake Center
09:54PM 39.9031 -109.0164 79° East 485 558 39,000  Level Denver Center
09:55PM 39.9253 -108.8781 78° East 487 560 39,000  Level Salt Lake Center
09:56PM 39.9508 -108.7094 79° East 489 563 39,000  Level Salt Lake Center
09:57PM 39.9811 -108.5144 78° East 488 562 39,000  Level Salt Lake Center
09:58PM 40.0056 -108.3486 79° East 486 559 39,000  Level Salt Lake Center
09:59PM 40.0306 -108.1817 79° East 487 560 39,000  Level Salt Lake Center
10:00PM 40.0586 -107.9889 79° East 483 556 39,000  Level Salt Lake Center
10:01PM 40.0619 -107.7942 89° East 476 548 39,000  Level Denver Center
10:02PM 40.0544 -107.6022 93° East 475 547 39,000  Level Denver Center
10:03PM 40.0472 -107.4361 93° East 478 550 39,000  Level Denver Center
10:04PM 40.0397 -107.2711 93° East 476 548 39,000  Level Denver Center
10:05PM 40.0311 -107.0772 93° East 479 551 39,000  Level Denver Center
10:06PM 40.0242 -106.9089 93° East 484 557 39,000  Level Denver Center
10:07PM 40.0144 -106.7100 94° East 491 565 39,000  Level Denver Center
10:08PM 40.0236 -106.5397 86° East 495 570 39,000  Level Denver Center
10:09PM 40.0450 -106.3533 81° East 503 579 39,000  Level Denver Center
10:10PM 40.0611 -106.1719 83° East 504 580 39,000  Level Denver Center
10:11PM 40.0772 -105.9944 83° East 496 571 39,000  Level Denver Center
10:12PM 40.0958 -105.8175 82° East 493 567 39,000  Level Denver Center
10:13PM 40.1131 -105.6378 83° East 495 570 39,000  Level Denver Center
10:14PM 40.1278 -105.4628 84° East 486 559 39,000  Level Denver Center
10:15PM 40.1425 -105.2844 84° East 495 570 39,000  Level Denver Center
10:16PM 40.1594 -105.1053 83° East 496 571 39,000  Level Denver Center
10:17PM 40.1775 -104.8928 84° East 489 563 39,000  Level Denver Center
10:18PM 40.1931 -104.7158 83° East 489 563 39,000  Level Denver Center
10:19PM 40.2075 -104.5392 84° East 486 559 39,000  Level Denver Center
10:20PM 40.2217 -104.3592 84° East 492 566 39,000  Level Denver Center
10:21PM 40.2358 -104.1794 84° East 495 570 39,000  Level Denver Center
10:22PM 40.2503 -103.9981 84° East 500 575 39,000  Level Denver Center
10:23PM 40.2639 -103.8153 84° East 500 575 39,000  Level Denver Center
10:24PM 40.2778 -103.6378 84° East 487 560 39,000  Level Denver Center
10:26PM 40.2914 -103.4581 84° East 494 568 39,000  Level Denver Center
10:27PM 40.3042 -103.2792 85° East 495 570 39,000  Level Denver Center
10:28PM 40.3161 -103.1017 85° East 490 564 39,000  Level Denver Center
10:29PM 40.3314 -102.8889 85° East 490 564 39,000  Level Denver Center
10:30PM 40.3439 -102.7114 85° East 490 564 39,000  Level Denver Center
10:31PM 40.3556 -102.5422 85° East 492 566 39,000  Level Denver Center
10:32PM 40.3697 -102.3161 85° East 489 563 39,000  Level Denver Center
10:33PM 40.3800 -102.1464 85° East 490 564 39,000  Level Denver Center
10:34PM 40.3919 -101.9486 85° East 488 562 39,000  Level Denver Center
10:35PM 40.4028 -101.7794 85° East 488 562 39,000  Level Denver Center
10:36PM 40.4133 -101.6103 85° East 488 562 39,000  Level Denver Center
10:37PM 40.4236 -101.4117 86° East 491 565 39,000  Level Denver Center
10:38PM 40.4331 -101.2400 86° East 495 570 39,000  Level Denver Center
10:39PM 40.4444 -101.0353 86° East 506 582 39,000  Level Denver Center
10:40PM 40.4522 -100.8594 87° East 509 586 39,000  Level Denver Center
10:41PM 40.4622 -100.6575 86° East 502 578 39,000  Level Denver Center
10:42PM 40.4708 -100.4853 86° East 498 573 39,000  Level Denver Center
10:43PM 40.4783 -100.3125 87° East 499 574 39,000  Level Denver Center
10:44PM 40.4872 -100.1106 87° East 498 573 39,000  Level Denver Center
10:45PM 40.4947 -99.9378 87° East 498 573 39,000  Level Denver Center
10:46PM 40.5039 -99.7553 86° East 502 578 39,000  Level Denver Center
10:47PM 40.5106 -99.5731 87° East 501 577 39,000  Level Denver Center
10:48PM 40.5194 -99.3561 87° East 502 578 39,000  Level Minneapolis Center
10:49PM 40.5253 -99.1717 88° East 506 582 39,000  Level Minneapolis Center
10:50PM 40.5300 -99.0256 88° East 506 582 39,000  Level Minneapolis Center
10:51PM 40.5383 -98.8044 87° East 507 583 39,000  Level Minneapolis Center
10:52PM 40.5442 -98.6197 88° East 509 586 39,000  Level Minneapolis Center
10:54PM 40.5494 -98.4342 88° East 510 587 39,000  Level Minneapolis Center
10:55PM 40.5556 -98.2122 88° East 510 587 39,000  Level Minneapolis Center
10:56PM 40.5603 -98.0253 88° East 512 589 39,000  Level Minneapolis Center
10:57PM 40.5656 -97.8389 88° East 513 590 39,000  Level Minneapolis Center
10:58PM 40.5706 -97.6156 88° East 512 589 39,000  Level Minneapolis Center
10:59PM 40.5747 -97.4283 88° East 513 590 39,000  Level Minneapolis Center
11:00PM 40.5792 -97.2392 88° East 511 588 39,000  Level Minneapolis Center
11:01PM 40.5819 -97.0528 89° East 512 589 39,000  Level Minneapolis Center
11:02PM 40.5858 -96.8653 88° East 513 590 39,000  Level Minneapolis Center
11:03PM 40.5883 -96.6786 89° East 513 590 39,000  Level Minneapolis Center
11:04PM 40.5900 -96.4917 89° East 514 592 39,000  Level Minneapolis Center
11:05PM 40.5922 -96.3061 89° East 513 590 39,000  Level Minneapolis Center
11:06PM 40.5956 -96.1194 89° East 513 590 39,000  Level Minneapolis Center
11:07PM 40.5964 -95.9331 90° East 513 590 39,000  Level Minneapolis Center
11:08PM 40.5975 -95.7481 89° East 512 589 39,000  Level Minneapolis Center
11:09PM 40.5992 -95.5603 89° East 515 593 39,000  Level Minneapolis Center
11:10PM 40.6008 -95.3336 89° East 518 596 39,000  Level Minneapolis Center
11:11PM 40.6019 -95.1844 89° East 515 593 39,000  Level Minneapolis Center
11:12PM 40.6014 -94.9597 90° East 514 592 39,000  Level Minneapolis Center
11:13PM 40.6011 -94.7722 90° East 514 592 39,000  Level Minneapolis Center
11:14PM 40.6011 -94.5836 90° East 515 593 39,000  Level Minneapolis Center
11:15PM 40.6225 -94.3956 81° East 516 594 39,000  Level Minneapolis Center
11:16PM 40.6492 -94.2094 79° East 519 597 39,000  Level Minneapolis Center
11:17PM 40.6756 -94.0211 79° East 522 601 39,000  Level Minneapolis Center
11:18PM 40.6989 -93.8319 81° East 525 604 39,000  Level Minneapolis Center
11:19PM 40.7242 -93.6442 80° East 524 603 39,000  Level Minneapolis Center
11:20PM 40.7486 -93.4556 80° East 525 604 39,000  Level Minneapolis Center
11:21PM 40.7708 -93.2661 81° East 526 605 39,000  Level Minneapolis Center
11:22PM 40.7992 -93.0367 81° East 528 608 39,000  Level Minneapolis Center
11:23PM 40.8228 -92.8442 81° East 531 611 39,000  Level Minneapolis Center
11:24PM 40.8550 -92.6544 77° East 530 610 39,000  Level Minneapolis Center
11:25PM 40.8903 -92.4678 76° East 526 605 39,000  Level Minneapolis Center
11:26PM 40.9231 -92.2778 77° East 528 608 39,000  Level Minneapolis Center
11:27PM 40.9558 -92.0889 77° East 529 609 39,000  Level Minneapolis Center
11:28PM 40.9886 -91.9011 77° East 528 608 39,000  Level Minneapolis Center
11:29PM 41.0239 -91.6939 77° East 527 606 39,000  Level Minneapolis Center
11:30PM 41.0603 -91.4794 77° East 525 604 39,000  Level Chicago Center
11:31PM 41.0928 -91.2889 77° East 529 609 39,000  Level Chicago Center
11:32PM 41.1247 -91.0983 77° East 529 609 39,000  Level Chicago Center
11:33PM 41.1567 -90.9053 78° East 533 613 39,000 -300 Level Chicago Center
11:34PM 41.1869 -90.7125 78° East 534 615 38,500 -1,500 Descending Chicago Center
11:35PM 41.2189 -90.5225 77° East 528 608 36,000 -1,740 Descending Chicago Center
11:36PM 41.2481 -90.3333 78° East 522 601 35,100 -900 Descending Chicago Center
11:37PM 41.2769 -90.1461 78° East 515 593 34,200 -1,020 Descending Chicago Center
11:38PM 41.3075 -89.9561 78° East 519 597 33,100 -1,980 Descending Chicago Center
11:39PM 41.3361 -89.7683 78° East 515 593 30,300 -2,880 Descending Chicago Center
11:40PM 41.3633 -89.5853 79° East 506 582 27,300 -3,300 Descending Chicago Center
11:41PM 41.3911 -89.4047 78° East 498 573 23,700 -3,180 Descending Chicago Center
11:42PM 41.4169 -89.2317 79° East 482 555 20,900 -2,880 Descending Chicago Center
11:43PM 41.4417 -89.0522 80° East 453 521 17,900 -2,820 Descending Chicago Center
11:44PM 41.4644 -88.8953 79° East 436 502 15,300 -2,640 Descending Chicago Center
11:45PM 41.4856 -88.7461 79° East 417 480 12,600 -2,580 Descending Chicago Center
11:46PM 41.5075 -88.6003 79° East 403 464 10,200 -1,320 Descending Chicago Center
11:47PM 41.5381 -88.4775 72° East 350 403 10,000 -720 Descending Chicago Center
11:48PM 41.5675 -88.3706 70° East 311 358 8,800 -1,320 Descending Chicago Center
11:49PM 41.5961 -88.2681 70° East 295 339 7,400 -1,380 Descending Chicago Center
11:50PM 41.6239 -88.1694 69° East 286 329 6,100 -1,380 Descending Chicago Center
11:51PM 41.6503 -88.0722 70° East 279 321 4,700 -1,200 Descending Chicago Center
11:52PM 41.6772 -87.9797 69° East 269 310 3,800 -840 Descending Chicago Center
11:53PM 41.6983 -87.8992 71° East 247 284 3,100 -720 Descending Chicago Center
11:54PM 41.7222 -87.8325 64° Northeast 220 253 2,400 -840 Descending Chicago Center
11:55PM 41.7486 -87.7992 43° Northeast 161 185 1,500 -780 Descending Chicago Center
11:56PM 41.7758 -87.7644 44° Northeast 142 163 900 -420 Descending Chicago Center
11:57PM 41.7964 -87.7367 45° Northeast 139 160 700 -240 Descending Chicago Center